sensor_id;sensor_type;location;lat;lon;timestamp;P1;durP1;ratioP1;P2;durP2;ratioP2
8252;SDS011;61313;48.396;10.008;2022-09-06T00:01:44;8.80;;;6.40;;
8252;SDS011;61313;48.396;10.008;2022-09-06T00:04:10;10.00;;;6.03;;
8252;SDS011;61313;48.396;10.008;2022-09-06T00:06:36;11.80;;;6.63;;
8252;SDS011;61313;48.396;10.008;2022-09-06T00:09:02;6.83;;;5.67;;
8252;SDS011;61313;48.396;10.008;2022-09-06T00:11:27;17.13;;;8.00;;
8252;SDS011;61313;48.396;10.008;2022-09-06T00:13:53;6.70;;;6.00;;
8252;SDS011;61313;48.396;10.008;2022-09-06T00:16:20;12.27;;;6.07;;
8252;SDS011;61313;48.396;10.008;2022-09-06T00:18:48;12.10;;;6.13;;
8252;SDS011;61313;48.396;10.008;2022-09-06T00:21:22;7.00;;;5.33;;
8252;SDS011;61313;48.396;10.008;2022-09-06T00:23:50;10.30;;;6.17;;
8252;SDS011;61313;48.396;10.008;2022-09-06T00:26:16;8.13;;;5.77;;
8252;SDS011;61313;48.396;10.008;2022-09-06T00:28:43;5.90;;;5.30;;
8252;SDS011;61313;48.396;10.008;2022-09-06T00:33:39;6.00;;;5.27;;
8252;SDS011;61313;48.396;10.008;2022-09-06T00:36:06;7.10;;;5.87;;
8252;SDS011;61313;48.396;10.008;2022-09-06T00:38:32;6.50;;;5.23;;
8252;SDS011;61313;48.396;10.008;2022-09-06T00:40:59;8.17;;;5.10;;
8252;SDS011;61313;48.396;10.008;2022-09-06T00:43:25;6.83;;;5.53;;
8252;SDS011;61313;48.396;10.008;2022-09-06T00:45:51;7.83;;;6.60;;
8252;SDS011;61313;48.396;10.008;2022-09-06T00:48:17;16.00;;;6.63;;
8252;SDS011;61313;48.396;10.008;2022-09-06T00:50:45;6.80;;;5.60;;
8252;SDS011;61313;48.396;10.008;2022-09-06T00:53:13;8.73;;;5.30;;
8252;SDS011;61313;48.396;10.008;2022-09-06T00:55:39;10.23;;;6.00;;
8252;SDS011;61313;48.396;10.008;2022-09-06T00:58:07;8.53;;;5.13;;
8252;SDS011;61313;48.396;10.008;2022-09-06T01:00:34;5.87;;;5.10;;
8252;SDS011;61313;48.396;10.008;2022-09-06T01:02:59;8.90;;;5.10;;
8252;SDS011;61313;48.396;10.008;2022-09-06T01:05:28;12.63;;;5.90;;
8252;SDS011;61313;48.396;10.008;2022-09-06T01:08:09;11.53;;;6.60;;
8252;SDS011;61313;48.396;10.008;2022-09-06T01:11:07;7.40;;;5.90;;
8252;SDS011;61313;48.396;10.008;2022-09-06T01:13:51;8.47;;;6.07;;
8252;SDS011;61313;48.396;10.008;2022-09-06T01:19:14;6.73;;;5.77;;
8252;SDS011;61313;48.396;10.008;2022-09-06T01:30:11;13.80;;;5.93;;
8252;SDS011;61313;48.396;10.008;2022-09-06T01:35:17;9.03;;;5.50;;
8252;SDS011;61313;48.396;10.008;2022-09-06T01:37:53;8.57;;;6.30;;
8252;SDS011;61313;48.396;10.008;2022-09-06T01:40:20;37.70;;;10.03;;
8252;SDS011;61313;48.396;10.008;2022-09-06T01:42:47;18.97;;;12.03;;
8252;SDS011;61313;48.396;10.008;2022-09-06T01:45:16;23.77;;;17.40;;
8252;SDS011;61313;48.396;10.008;2022-09-06T01:50:45;8.30;;;5.97;;
8252;SDS011;61313;48.396;10.008;2022-09-06T01:59:34;8.53;;;6.10;;
8252;SDS011;61313;48.396;10.008;2022-09-06T02:04:51;5.43;;;4.93;;
8252;SDS011;61313;48.396;10.008;2022-09-06T02:07:26;8.63;;;5.13;;
8252;SDS011;61313;48.396;10.008;2022-09-06T02:12:31;30.77;;;9.80;;
8252;SDS011;61313;48.396;10.008;2022-09-06T02:15:05;23.40;;;6.70;;
8252;SDS011;61313;48.396;10.008;2022-09-06T02:17:37;18.90;;;6.97;;
8252;SDS011;61313;48.396;10.008;2022-09-06T02:22:34;9.50;;;5.80;;
8252;SDS011;61313;48.396;10.008;2022-09-06T02:25:05;11.67;;;6.03;;
8252;SDS011;61313;48.396;10.008;2022-09-06T02:27:33;11.97;;;5.83;;
8252;SDS011;61313;48.396;10.008;2022-09-06T02:29:59;16.93;;;6.27;;
8252;SDS011;61313;48.396;10.008;2022-09-06T02:32:27;7.07;;;5.77;;
8252;SDS011;61313;48.396;10.008;2022-09-06T02:34:55;5.77;;;5.23;;
8252;SDS011;61313;48.396;10.008;2022-09-06T02:37:24;7.53;;;5.40;;
8252;SDS011;61313;48.396;10.008;2022-09-06T02:39:51;8.70;;;6.00;;
8252;SDS011;61313;48.396;10.008;2022-09-06T02:42:19;6.43;;;5.00;;
8252;SDS011;61313;48.396;10.008;2022-09-06T02:44:46;6.90;;;5.47;;
8252;SDS011;61313;48.396;10.008;2022-09-06T02:47:13;6.93;;;6.23;;
8252;SDS011;61313;48.396;10.008;2022-09-06T02:49:39;5.77;;;5.20;;
8252;SDS011;61313;48.396;10.008;2022-09-06T02:52:04;15.23;;;6.90;;
8252;SDS011;61313;48.396;10.008;2022-09-06T02:54:30;16.50;;;6.10;;
8252;SDS011;61313;48.396;10.008;2022-09-06T02:56:56;8.90;;;5.40;;
8252;SDS011;61313;48.396;10.008;2022-09-06T02:59:22;9.57;;;6.03;;
8252;SDS011;61313;48.396;10.008;2022-09-06T03:01:47;9.00;;;6.10;;
8252;SDS011;61313;48.396;10.008;2022-09-06T03:04:13;11.00;;;6.03;;
8252;SDS011;61313;48.396;10.008;2022-09-06T03:06:39;9.90;;;5.83;;
8252;SDS011;61313;48.396;10.008;2022-09-06T03:09:05;6.87;;;5.70;;
8252;SDS011;61313;48.396;10.008;2022-09-06T03:11:30;7.73;;;5.73;;
8252;SDS011;61313;48.396;10.008;2022-09-06T03:13:56;9.80;;;5.80;;
8252;SDS011;61313;48.396;10.008;2022-09-06T03:16:22;9.30;;;5.53;;
8252;SDS011;61313;48.396;10.008;2022-09-06T03:18:48;6.37;;;5.77;;
8252;SDS011;61313;48.396;10.008;2022-09-06T03:21:13;9.47;;;6.50;;
8252;SDS011;61313;48.396;10.008;2022-09-06T03:23:39;6.90;;;5.27;;
8252;SDS011;61313;48.396;10.008;2022-09-06T03:26:05;7.93;;;5.73;;
8252;SDS011;61313;48.396;10.008;2022-09-06T03:28:31;7.23;;;5.50;;
8252;SDS011;61313;48.396;10.008;2022-09-06T03:30:58;10.63;;;6.47;;
8252;SDS011;61313;48.396;10.008;2022-09-06T03:33:24;12.30;;;5.57;;
8252;SDS011;61313;48.396;10.008;2022-09-06T03:35:51;9.30;;;7.23;;
8252;SDS011;61313;48.396;10.008;2022-09-06T03:38:18;8.97;;;6.83;;
8252;SDS011;61313;48.396;10.008;2022-09-06T03:40:45;9.70;;;7.90;;
8252;SDS011;61313;48.396;10.008;2022-09-06T03:43:11;8.23;;;6.10;;
8252;SDS011;61313;48.396;10.008;2022-09-06T03:45:37;5.50;;;5.00;;
8252;SDS011;61313;48.396;10.008;2022-09-06T03:48:03;8.77;;;5.50;;
8252;SDS011;61313;48.396;10.008;2022-09-06T03:50:29;20.03;;;6.80;;
8252;SDS011;61313;48.396;10.008;2022-09-06T03:52:55;7.50;;;5.30;;
8252;SDS011;61313;48.396;10.008;2022-09-06T03:55:20;6.63;;;5.00;;
8252;SDS011;61313;48.396;10.008;2022-09-06T03:57:46;8.43;;;6.07;;
8252;SDS011;61313;48.396;10.008;2022-09-06T04:00:12;8.20;;;5.70;;
8252;SDS011;61313;48.396;10.008;2022-09-06T04:02:38;15.37;;;6.13;;
8252;SDS011;61313;48.396;10.008;2022-09-06T04:05:04;11.67;;;6.93;;
8252;SDS011;61313;48.396;10.008;2022-09-06T04:07:30;9.13;;;5.93;;
8252;SDS011;61313;48.396;10.008;2022-09-06T04:09:56;9.63;;;6.00;;
8252;SDS011;61313;48.396;10.008;2022-09-06T04:12:21;8.50;;;5.40;;
8252;SDS011;61313;48.396;10.008;2022-09-06T04:14:47;8.93;;;6.07;;
8252;SDS011;61313;48.396;10.008;2022-09-06T04:17:13;10.57;;;6.37;;
8252;SDS011;61313;48.396;10.008;2022-09-06T04:19:39;11.37;;;7.27;;
8252;SDS011;61313;48.396;10.008;2022-09-06T04:22:04;11.03;;;6.00;;
8252;SDS011;61313;48.396;10.008;2022-09-06T04:24:30;10.30;;;6.87;;
8252;SDS011;61313;48.396;10.008;2022-09-06T04:26:56;14.10;;;6.70;;
8252;SDS011;61313;48.396;10.008;2022-09-06T04:29:21;14.83;;;6.97;;
8252;SDS011;61313;48.396;10.008;2022-09-06T04:31:47;23.87;;;8.30;;
8252;SDS011;61313;48.396;10.008;2022-09-06T04:34:13;18.43;;;7.50;;
8252;SDS011;61313;48.396;10.008;2022-09-06T04:36:40;18.80;;;8.37;;
8252;SDS011;61313;48.396;10.008;2022-09-06T04:39:06;11.13;;;7.00;;
8252;SDS011;61313;48.396;10.008;2022-09-06T04:41:31;9.43;;;7.47;;
8252;SDS011;61313;48.396;10.008;2022-09-06T04:43:57;11.50;;;7.40;;
8252;SDS011;61313;48.396;10.008;2022-09-06T04:46:24;19.63;;;8.70;;
8252;SDS011;61313;48.396;10.008;2022-09-06T04:48:52;15.90;;;8.00;;
8252;SDS011;61313;48.396;10.008;2022-09-06T04:51:18;10.47;;;7.77;;
8252;SDS011;61313;48.396;10.008;2022-09-06T04:53:45;14.63;;;7.90;;
8252;SDS011;61313;48.396;10.008;2022-09-06T04:56:15;19.50;;;9.03;;
8252;SDS011;61313;48.396;10.008;2022-09-06T04:58:42;48.87;;;12.80;;
8252;SDS011;61313;48.396;10.008;2022-09-06T05:01:09;10.87;;;8.33;;
8252;SDS011;61313;48.396;10.008;2022-09-06T05:03:35;10.50;;;8.10;;
8252;SDS011;61313;48.396;10.008;2022-09-06T05:06:04;9.30;;;8.30;;
8252;SDS011;61313;48.396;10.008;2022-09-06T05:08:31;14.60;;;8.60;;
8252;SDS011;61313;48.396;10.008;2022-09-06T05:10:57;10.57;;;8.40;;
8252;SDS011;61313;48.396;10.008;2022-09-06T05:13:23;8.93;;;8.13;;
8252;SDS011;61313;48.396;10.008;2022-09-06T05:15:49;9.20;;;7.87;;
8252;SDS011;61313;48.396;10.008;2022-09-06T05:18:15;29.10;;;9.60;;
8252;SDS011;61313;48.396;10.008;2022-09-06T05:20:41;16.60;;;9.27;;
8252;SDS011;61313;48.396;10.008;2022-09-06T05:23:06;24.20;;;8.70;;
8252;SDS011;61313;48.396;10.008;2022-09-06T05:25:32;23.80;;;9.70;;
8252;SDS011;61313;48.396;10.008;2022-09-06T05:27:58;34.17;;;10.53;;
8252;SDS011;61313;48.396;10.008;2022-09-06T05:30:24;31.00;;;11.30;;
8252;SDS011;61313;48.396;10.008;2022-09-06T05:32:49;12.83;;;7.73;;
8252;SDS011;61313;48.396;10.008;2022-09-06T05:35:15;11.03;;;8.50;;
8252;SDS011;61313;48.396;10.008;2022-09-06T05:37:41;24.50;;;10.93;;
8252;SDS011;61313;48.396;10.008;2022-09-06T05:40:07;18.73;;;9.27;;
8252;SDS011;61313;48.396;10.008;2022-09-06T05:42:33;20.80;;;10.20;;
8252;SDS011;61313;48.396;10.008;2022-09-06T05:44:59;32.53;;;9.37;;
8252;SDS011;61313;48.396;10.008;2022-09-06T05:47:25;25.43;;;10.43;;
8252;SDS011;61313;48.396;10.008;2022-09-06T05:49:52;30.70;;;10.63;;
8252;SDS011;61313;48.396;10.008;2022-09-06T05:52:18;13.67;;;9.30;;
8252;SDS011;61313;48.396;10.008;2022-09-06T05:54:44;16.50;;;9.67;;
8252;SDS011;61313;48.396;10.008;2022-09-06T05:57:09;40.47;;;11.77;;
8252;SDS011;61313;48.396;10.008;2022-09-06T05:59:35;57.47;;;16.03;;
8252;SDS011;61313;48.396;10.008;2022-09-06T06:02:01;45.77;;;13.13;;
8252;SDS011;61313;48.396;10.008;2022-09-06T06:04:26;49.43;;;15.20;;
8252;SDS011;61313;48.396;10.008;2022-09-06T06:06:52;23.63;;;10.93;;
8252;SDS011;61313;48.396;10.008;2022-09-06T06:09:18;41.90;;;11.53;;
8252;SDS011;61313;48.396;10.008;2022-09-06T06:11:43;37.60;;;12.90;;
8252;SDS011;61313;48.396;10.008;2022-09-06T06:14:09;23.23;;;10.80;;
8252;SDS011;61313;48.396;10.008;2022-09-06T06:16:35;16.70;;;10.70;;
8252;SDS011;61313;48.396;10.008;2022-09-06T06:19:01;26.60;;;10.93;;
8252;SDS011;61313;48.396;10.008;2022-09-06T06:21:27;25.37;;;10.77;;
8252;SDS011;61313;48.396;10.008;2022-09-06T06:23:57;17.57;;;9.30;;
8252;SDS011;61313;48.396;10.008;2022-09-06T06:26:25;26.13;;;10.57;;
8252;SDS011;61313;48.396;10.008;2022-09-06T06:28:52;44.37;;;12.50;;
8252;SDS011;61313;48.396;10.008;2022-09-06T06:31:18;18.07;;;9.70;;
8252;SDS011;61313;48.396;10.008;2022-09-06T06:33:46;29.27;;;10.67;;
8252;SDS011;61313;48.396;10.008;2022-09-06T06:38:39;39.53;;;11.53;;
8252;SDS011;61313;48.396;10.008;2022-09-06T06:41:07;58.60;;;13.57;;
8252;SDS011;61313;48.396;10.008;2022-09-06T06:43:34;38.43;;;10.87;;
8252;SDS011;61313;48.396;10.008;2022-09-06T06:46:03;33.23;;;13.47;;
8252;SDS011;61313;48.396;10.008;2022-09-06T06:48:33;30.37;;;12.93;;
8252;SDS011;61313;48.396;10.008;2022-09-06T06:51:00;26.63;;;11.60;;
8252;SDS011;61313;48.396;10.008;2022-09-06T06:53:26;18.53;;;10.70;;
8252;SDS011;61313;48.396;10.008;2022-09-06T06:55:52;31.43;;;11.43;;
8252;SDS011;61313;48.396;10.008;2022-09-06T06:58:18;50.10;;;14.50;;
8252;SDS011;61313;48.396;10.008;2022-09-06T07:00:44;48.13;;;13.70;;
8252;SDS011;61313;48.396;10.008;2022-09-06T07:03:11;59.03;;;15.40;;
8252;SDS011;61313;48.396;10.008;2022-09-06T07:05:38;92.33;;;17.00;;
8252;SDS011;61313;48.396;10.008;2022-09-06T07:08:05;40.03;;;12.07;;
8252;SDS011;61313;48.396;10.008;2022-09-06T07:10:31;49.53;;;13.80;;
8252;SDS011;61313;48.396;10.008;2022-09-06T07:12:58;52.03;;;13.80;;
8252;SDS011;61313;48.396;10.008;2022-09-06T07:15:24;48.40;;;14.50;;
8252;SDS011;61313;48.396;10.008;2022-09-06T07:17:50;35.67;;;12.40;;
8252;SDS011;61313;48.396;10.008;2022-09-06T07:20:17;55.63;;;12.97;;
8252;SDS011;61313;48.396;10.008;2022-09-06T07:22:44;29.90;;;10.70;;
8252;SDS011;61313;48.396;10.008;2022-09-06T07:25:10;26.10;;;10.57;;
8252;SDS011;61313;48.396;10.008;2022-09-06T07:27:37;32.10;;;11.80;;
8252;SDS011;61313;48.396;10.008;2022-09-06T07:30:04;34.40;;;11.50;;
8252;SDS011;61313;48.396;10.008;2022-09-06T07:32:32;67.77;;;12.57;;
8252;SDS011;61313;48.396;10.008;2022-09-06T07:34:58;21.63;;;9.60;;
8252;SDS011;61313;48.396;10.008;2022-09-06T07:37:24;46.13;;;10.50;;
8252;SDS011;61313;48.396;10.008;2022-09-06T07:39:50;41.27;;;11.87;;
8252;SDS011;61313;48.396;10.008;2022-09-06T07:42:15;18.07;;;8.60;;
8252;SDS011;61313;48.396;10.008;2022-09-06T07:44:41;19.87;;;8.70;;
8252;SDS011;61313;48.396;10.008;2022-09-06T07:47:07;28.03;;;9.33;;
8252;SDS011;61313;48.396;10.008;2022-09-06T07:49:34;15.70;;;8.00;;
8252;SDS011;61313;48.396;10.008;2022-09-06T07:51:59;88.53;;;14.10;;
8252;SDS011;61313;48.396;10.008;2022-09-06T07:54:25;61.80;;;10.57;;
8252;SDS011;61313;48.396;10.008;2022-09-06T07:56:51;40.10;;;10.27;;
8252;SDS011;61313;48.396;10.008;2022-09-06T07:59:17;15.50;;;6.70;;
8252;SDS011;61313;48.396;10.008;2022-09-06T08:01:42;25.53;;;7.27;;
8252;SDS011;61313;48.396;10.008;2022-09-06T08:04:09;19.23;;;5.80;;
8252;SDS011;61313;48.396;10.008;2022-09-06T08:06:40;32.20;;;8.27;;
8252;SDS011;61313;48.396;10.008;2022-09-06T08:09:12;16.97;;;5.80;;
8252;SDS011;61313;48.396;10.008;2022-09-06T08:11:38;12.27;;;5.90;;
8252;SDS011;61313;48.396;10.008;2022-09-06T08:14:05;10.70;;;6.33;;
8252;SDS011;61313;48.396;10.008;2022-09-06T08:16:32;13.63;;;6.70;;
8252;SDS011;61313;48.396;10.008;2022-09-06T08:19:00;15.27;;;6.33;;
8252;SDS011;61313;48.396;10.008;2022-09-06T08:21:29;10.93;;;5.23;;
8252;SDS011;61313;48.396;10.008;2022-09-06T08:23:59;13.43;;;5.67;;
8252;SDS011;61313;48.396;10.008;2022-09-06T08:26:28;12.43;;;6.10;;
8252;SDS011;61313;48.396;10.008;2022-09-06T08:28:59;28.53;;;6.60;;
8252;SDS011;61313;48.396;10.008;2022-09-06T08:31:29;12.37;;;5.67;;
8252;SDS011;61313;48.396;10.008;2022-09-06T08:33:56;24.93;;;6.70;;
8252;SDS011;61313;48.396;10.008;2022-09-06T08:36:23;48.73;;;9.00;;
8252;SDS011;61313;48.396;10.008;2022-09-06T08:38:56;21.30;;;6.20;;
8252;SDS011;61313;48.396;10.008;2022-09-06T08:41:32;13.90;;;6.23;;
8252;SDS011;61313;48.396;10.008;2022-09-06T08:44:08;21.40;;;6.93;;
8252;SDS011;61313;48.396;10.008;2022-09-06T08:46:37;12.60;;;5.83;;
8252;SDS011;61313;48.396;10.008;2022-09-06T08:49:06;23.63;;;5.97;;
8252;SDS011;61313;48.396;10.008;2022-09-06T08:54:32;29.80;;;7.50;;
8252;SDS011;61313;48.396;10.008;2022-09-06T08:57:09;11.23;;;5.70;;
8252;SDS011;61313;48.396;10.008;2022-09-06T08:59:52;18.93;;;6.93;;
8252;SDS011;61313;48.396;10.008;2022-09-06T09:02:23;20.10;;;7.70;;
8252;SDS011;61313;48.396;10.008;2022-09-06T09:09:45;14.47;;;7.00;;
8252;SDS011;61313;48.396;10.008;2022-09-06T09:12:11;12.27;;;5.93;;
8252;SDS011;61313;48.396;10.008;2022-09-06T09:14:41;10.30;;;4.97;;
8252;SDS011;61313;48.396;10.008;2022-09-06T09:17:16;16.90;;;6.20;;
8252;SDS011;61313;48.396;10.008;2022-09-06T09:19:46;8.10;;;5.00;;
8252;SDS011;61313;48.396;10.008;2022-09-06T09:22:16;7.20;;;4.47;;
8252;SDS011;61313;48.396;10.008;2022-09-06T09:24:43;11.70;;;5.00;;
8252;SDS011;61313;48.396;10.008;2022-09-06T09:27:11;10.63;;;5.43;;
8252;SDS011;61313;48.396;10.008;2022-09-06T09:30:03;17.27;;;5.27;;
8252;SDS011;61313;48.396;10.008;2022-09-06T09:35:16;21.77;;;6.03;;
8252;SDS011;61313;48.396;10.008;2022-09-06T09:37:45;6.67;;;4.00;;
8252;SDS011;61313;48.396;10.008;2022-09-06T09:40:16;21.63;;;6.23;;
8252;SDS011;61313;48.396;10.008;2022-09-06T09:42:48;32.80;;;6.23;;
8252;SDS011;61313;48.396;10.008;2022-09-06T09:45:25;14.60;;;4.57;;
8252;SDS011;61313;48.396;10.008;2022-09-06T09:47:52;28.53;;;7.00;;
8252;SDS011;61313;48.396;10.008;2022-09-06T09:52:54;94.50;;;13.20;;
8252;SDS011;61313;48.396;10.008;2022-09-06T09:55:30;30.97;;;6.97;;
8252;SDS011;61313;48.396;10.008;2022-09-06T09:57:56;7.27;;;4.87;;
8252;SDS011;61313;48.396;10.008;2022-09-06T10:00:33;19.80;;;7.00;;
8252;SDS011;61313;48.396;10.008;2022-09-06T10:03:12;30.90;;;7.83;;
8252;SDS011;61313;48.396;10.008;2022-09-06T10:05:41;16.87;;;6.30;;
8252;SDS011;61313;48.396;10.008;2022-09-06T10:08:18;24.97;;;6.50;;
8252;SDS011;61313;48.396;10.008;2022-09-06T10:10:47;12.27;;;5.00;;
8252;SDS011;61313;48.396;10.008;2022-09-06T10:13:20;20.73;;;5.80;;
8252;SDS011;61313;48.396;10.008;2022-09-06T10:15:51;17.07;;;5.47;;
8252;SDS011;61313;48.396;10.008;2022-09-06T10:20:50;28.30;;;6.13;;
8252;SDS011;61313;48.396;10.008;2022-09-06T10:23:23;14.47;;;6.03;;
8252;SDS011;61313;48.396;10.008;2022-09-06T10:28:47;9.20;;;5.17;;
8252;SDS011;61313;48.396;10.008;2022-09-06T10:31:24;14.30;;;5.97;;
8252;SDS011;61313;48.396;10.008;2022-09-06T10:36:50;48.37;;;7.87;;
8252;SDS011;61313;48.396;10.008;2022-09-06T10:39:48;20.33;;;6.47;;
8252;SDS011;61313;48.396;10.008;2022-09-06T10:47:28;23.27;;;5.47;;
8252;SDS011;61313;48.396;10.008;2022-09-06T10:50:00;10.50;;;5.27;;
8252;SDS011;61313;48.396;10.008;2022-09-06T10:52:33;16.17;;;6.73;;
8252;SDS011;61313;48.396;10.008;2022-09-06T10:55:04;12.20;;;5.33;;
8252;SDS011;61313;48.396;10.008;2022-09-06T10:57:35;7.40;;;5.43;;
8252;SDS011;61313;48.396;10.008;2022-09-06T11:00:11;14.40;;;5.33;;
8252;SDS011;61313;48.396;10.008;2022-09-06T11:02:41;15.63;;;5.70;;
8252;SDS011;61313;48.396;10.008;2022-09-06T11:05:20;28.57;;;6.40;;
8252;SDS011;61313;48.396;10.008;2022-09-06T11:07:55;21.03;;;6.40;;
8252;SDS011;61313;48.396;10.008;2022-09-06T11:10:29;11.60;;;6.07;;
8252;SDS011;61313;48.396;10.008;2022-09-06T11:15:55;11.47;;;5.20;;
8252;SDS011;61313;48.396;10.008;2022-09-06T11:18:22;19.90;;;5.60;;
8252;SDS011;61313;48.396;10.008;2022-09-06T11:26:24;8.37;;;5.33;;
8252;SDS011;61313;48.396;10.008;2022-09-06T11:29:07;26.47;;;6.83;;
8252;SDS011;61313;48.396;10.008;2022-09-06T11:31:52;18.00;;;5.57;;
8252;SDS011;61313;48.396;10.008;2022-09-06T11:34:24;39.87;;;8.90;;
8252;SDS011;61313;48.396;10.008;2022-09-06T11:36:55;45.03;;;8.30;;
8252;SDS011;61313;48.396;10.008;2022-09-06T11:39:26;36.30;;;8.53;;
8252;SDS011;61313;48.396;10.008;2022-09-06T11:41:58;9.03;;;4.87;;
8252;SDS011;61313;48.396;10.008;2022-09-06T11:55:25;34.40;;;6.77;;
8252;SDS011;61313;48.396;10.008;2022-09-06T11:57:55;19.40;;;7.17;;
8252;SDS011;61313;48.396;10.008;2022-09-06T12:00:22;10.37;;;4.93;;
8252;SDS011;61313;48.396;10.008;2022-09-06T12:02:49;19.90;;;7.43;;
8252;SDS011;61313;48.396;10.008;2022-09-06T12:05:19;17.67;;;6.20;;
8252;SDS011;61313;48.396;10.008;2022-09-06T12:16:06;10.40;;;4.70;;
8252;SDS011;61313;48.396;10.008;2022-09-06T12:24:08;12.63;;;6.13;;
8252;SDS011;61313;48.396;10.008;2022-09-06T12:27:17;12.20;;;4.90;;
8252;SDS011;61313;48.396;10.008;2022-09-06T12:32:42;27.37;;;6.60;;
8252;SDS011;61313;48.396;10.008;2022-09-06T12:35:19;34.20;;;7.67;;
8252;SDS011;61313;48.396;10.008;2022-09-06T12:40:21;37.33;;;7.40;;
8252;SDS011;61313;48.396;10.008;2022-09-06T12:42:48;40.37;;;7.20;;
8252;SDS011;61313;48.396;10.008;2022-09-06T12:45:15;26.07;;;7.77;;
8252;SDS011;61313;48.396;10.008;2022-09-06T12:47:46;47.17;;;8.53;;
8252;SDS011;61313;48.396;10.008;2022-09-06T12:50:20;29.37;;;7.47;;
8252;SDS011;61313;48.396;10.008;2022-09-06T12:52:56;43.87;;;8.30;;
8252;SDS011;61313;48.396;10.008;2022-09-06T12:55:29;16.43;;;5.43;;
8252;SDS011;61313;48.396;10.008;2022-09-06T12:58:00;15.70;;;6.60;;
8252;SDS011;61313;48.396;10.008;2022-09-06T13:03:28;27.97;;;7.17;;
8252;SDS011;61313;48.396;10.008;2022-09-06T13:06:05;37.37;;;7.90;;
8252;SDS011;61313;48.396;10.008;2022-09-06T13:11:07;15.63;;;6.80;;
8252;SDS011;61313;48.396;10.008;2022-09-06T13:13:43;20.23;;;6.50;;
8252;SDS011;61313;48.396;10.008;2022-09-06T13:16:17;27.53;;;7.63;;
8252;SDS011;61313;48.396;10.008;2022-09-06T13:18:44;26.10;;;6.77;;
8252;SDS011;61313;48.396;10.008;2022-09-06T13:21:10;12.20;;;5.27;;
8252;SDS011;61313;48.396;10.008;2022-09-06T13:23:46;12.93;;;5.40;;
8252;SDS011;61313;48.396;10.008;2022-09-06T13:26:30;15.30;;;6.40;;
8252;SDS011;61313;48.396;10.008;2022-09-06T13:31:47;10.67;;;5.43;;
8252;SDS011;61313;48.396;10.008;2022-09-06T13:34:33;12.93;;;5.57;;
8252;SDS011;61313;48.396;10.008;2022-09-06T13:37:00;11.87;;;5.20;;
8252;SDS011;61313;48.396;10.008;2022-09-06T13:39:34;24.43;;;8.60;;
8252;SDS011;61313;48.396;10.008;2022-09-06T13:42:05;12.53;;;5.90;;
8252;SDS011;61313;48.396;10.008;2022-09-06T13:44:33;19.73;;;5.97;;
8252;SDS011;61313;48.396;10.008;2022-09-06T13:47:01;32.73;;;8.30;;
8252;SDS011;61313;48.396;10.008;2022-09-06T13:49:26;21.13;;;6.97;;
8252;SDS011;61313;48.396;10.008;2022-09-06T13:51:53;26.03;;;7.10;;
8252;SDS011;61313;48.396;10.008;2022-09-06T13:54:22;61.47;;;11.13;;
8252;SDS011;61313;48.396;10.008;2022-09-06T13:56:48;34.17;;;8.70;;
8252;SDS011;61313;48.396;10.008;2022-09-06T13:59:14;35.40;;;8.60;;
8252;SDS011;61313;48.396;10.008;2022-09-06T14:01:42;23.33;;;8.47;;
8252;SDS011;61313;48.396;10.008;2022-09-06T14:04:10;30.70;;;7.73;;
8252;SDS011;61313;48.396;10.008;2022-09-06T14:06:38;24.67;;;6.50;;
8252;SDS011;61313;48.396;10.008;2022-09-06T14:09:04;33.53;;;7.70;;
8252;SDS011;61313;48.396;10.008;2022-09-06T14:11:30;46.83;;;9.20;;
8252;SDS011;61313;48.396;10.008;2022-09-06T14:13:56;29.13;;;8.70;;
8252;SDS011;61313;48.396;10.008;2022-09-06T14:16:22;70.53;;;10.57;;
8252;SDS011;61313;48.396;10.008;2022-09-06T14:18:48;33.70;;;8.47;;
8252;SDS011;61313;48.396;10.008;2022-09-06T14:21:14;18.80;;;5.70;;
8252;SDS011;61313;48.396;10.008;2022-09-06T14:23:40;28.77;;;7.60;;
8252;SDS011;61313;48.396;10.008;2022-09-06T14:26:06;28.80;;;7.07;;
8252;SDS011;61313;48.396;10.008;2022-09-06T14:28:34;14.43;;;6.30;;
8252;SDS011;61313;48.396;10.008;2022-09-06T14:33:56;24.50;;;7.27;;
8252;SDS011;61313;48.396;10.008;2022-09-06T14:36:24;13.27;;;6.57;;
8252;SDS011;61313;48.396;10.008;2022-09-06T14:38:53;27.33;;;7.20;;
8252;SDS011;61313;48.396;10.008;2022-09-06T14:41:20;24.93;;;7.40;;
8252;SDS011;61313;48.396;10.008;2022-09-06T14:43:49;25.03;;;5.70;;
8252;SDS011;61313;48.396;10.008;2022-09-06T14:46:17;14.40;;;5.30;;
8252;SDS011;61313;48.396;10.008;2022-09-06T14:48:46;20.80;;;6.50;;
8252;SDS011;61313;48.396;10.008;2022-09-06T14:51:13;14.40;;;5.70;;
8252;SDS011;61313;48.396;10.008;2022-09-06T14:53:55;15.00;;;5.93;;
8252;SDS011;61313;48.396;10.008;2022-09-06T14:56:23;26.70;;;7.17;;
8252;SDS011;61313;48.396;10.008;2022-09-06T14:58:50;32.80;;;7.37;;
8252;SDS011;61313;48.396;10.008;2022-09-06T15:01:19;21.50;;;6.50;;
8252;SDS011;61313;48.396;10.008;2022-09-06T15:03:52;20.53;;;6.57;;
8252;SDS011;61313;48.396;10.008;2022-09-06T15:06:20;14.70;;;5.60;;
8252;SDS011;61313;48.396;10.008;2022-09-06T15:08:47;15.40;;;6.30;;
8252;SDS011;61313;48.396;10.008;2022-09-06T15:11:17;13.17;;;6.00;;
8252;SDS011;61313;48.396;10.008;2022-09-06T15:13:53;12.60;;;5.53;;
8252;SDS011;61313;48.396;10.008;2022-09-06T15:16:20;16.80;;;5.17;;
8252;SDS011;61313;48.396;10.008;2022-09-06T15:18:45;13.30;;;5.40;;
8252;SDS011;61313;48.396;10.008;2022-09-06T15:21:12;9.60;;;5.30;;
8252;SDS011;61313;48.396;10.008;2022-09-06T15:23:40;14.57;;;5.43;;
8252;SDS011;61313;48.396;10.008;2022-09-06T15:26:09;20.00;;;6.00;;
8252;SDS011;61313;48.396;10.008;2022-09-06T15:28:37;11.83;;;5.10;;
8252;SDS011;61313;48.396;10.008;2022-09-06T15:31:05;18.67;;;6.97;;
8252;SDS011;61313;48.396;10.008;2022-09-06T15:33:32;14.53;;;5.47;;
8252;SDS011;61313;48.396;10.008;2022-09-06T15:35:59;16.57;;;6.17;;
8252;SDS011;61313;48.396;10.008;2022-09-06T15:38:30;52.53;;;9.57;;
8252;SDS011;61313;48.396;10.008;2022-09-06T15:41:07;29.20;;;7.93;;
8252;SDS011;61313;48.396;10.008;2022-09-06T15:43:35;65.47;;;10.30;;
8252;SDS011;61313;48.396;10.008;2022-09-06T15:46:04;23.20;;;6.47;;
8252;SDS011;61313;48.396;10.008;2022-09-06T15:48:32;27.73;;;6.10;;
8252;SDS011;61313;48.396;10.008;2022-09-06T15:51:14;18.40;;;5.77;;
8252;SDS011;61313;48.396;10.008;2022-09-06T15:53:42;33.73;;;7.10;;
8252;SDS011;61313;48.396;10.008;2022-09-06T15:56:09;28.27;;;7.00;;
8252;SDS011;61313;48.396;10.008;2022-09-06T15:58:37;38.80;;;8.80;;
8252;SDS011;61313;48.396;10.008;2022-09-06T16:03:36;15.17;;;6.10;;
8252;SDS011;61313;48.396;10.008;2022-09-06T16:06:05;19.80;;;6.17;;
8252;SDS011;61313;48.396;10.008;2022-09-06T16:08:33;160.60;;;17.10;;
8252;SDS011;61313;48.396;10.008;2022-09-06T16:10:59;97.77;;;12.93;;
8252;SDS011;61313;48.396;10.008;2022-09-06T16:13:31;74.23;;;13.50;;
8252;SDS011;61313;48.396;10.008;2022-09-06T16:15:58;76.30;;;12.00;;
8252;SDS011;61313;48.396;10.008;2022-09-06T16:18:26;50.40;;;8.77;;
8252;SDS011;61313;48.396;10.008;2022-09-06T16:20:51;37.03;;;8.23;;
8252;SDS011;61313;48.396;10.008;2022-09-06T16:23:17;26.83;;;6.20;;
8252;SDS011;61313;48.396;10.008;2022-09-06T16:25:47;57.40;;;9.60;;
8252;SDS011;61313;48.396;10.008;2022-09-06T16:28:17;56.60;;;9.73;;
8252;SDS011;61313;48.396;10.008;2022-09-06T16:30:42;78.67;;;11.33;;
8252;SDS011;61313;48.396;10.008;2022-09-06T16:33:09;34.17;;;8.60;;
8252;SDS011;61313;48.396;10.008;2022-09-06T16:35:39;11.47;;;5.40;;
8252;SDS011;61313;48.396;10.008;2022-09-06T16:38:05;14.17;;;5.33;;
8252;SDS011;61313;48.396;10.008;2022-09-06T16:40:32;15.80;;;6.37;;